Time;durP1;ratioP1;P1;durP2;ratioP2;P2;SDS_P1;SDS_P2;PMS_P1;PMS_P2;Temp;Humidity;BMP_temperature;BMP_pressure;BME280_temperature;BME280_humidity;BME280_pressure;Samples;Min_cycle;Max_cycle;Signal;HPM_P1;HPM_P2
2021/12/01 00:02:12;;;;;;;44.55;21.15;;;9.40;99.90;;;;;;5037728;28;20525;-54
2021/12/01 00:04:38;;;;;;;49.08;21.42;;;9.40;99.90;;;;;;5037128;28;20398;-56
2021/12/01 00:07:06;;;;;;;56.08;21.67;;;9.40;99.90;;;;;;5040863;28;20501;-56
2021/12/01 00:09:32;;;;;;;49.17;20.50;;;9.40;99.90;;;;;;5038856;28;20352;-57
2021/12/01 00:11:58;;;;;;;46.75;21.30;;;9.40;99.90;;;;;;5021084;28;20171;-57
2021/12/01 00:14:24;;;;;;;45.22;21.20;;;9.40;99.90;;;;;;5037992;28;20040;-55
2021/12/01 00:16:49;;;;;;;45.60;21.10;;;9.40;99.90;;;;;;5016477;28;20028;-56
2021/12/01 00:19:15;;;;;;;47.78;22.63;;;9.40;99.90;;;;;;5026004;28;20051;-56
2021/12/01 00:21:41;;;;;;;49.90;22.23;;;9.40;99.90;;;;;;5044652;28;20048;-57
2021/12/01 00:24:07;;;;;;;44.15;22.58;;;9.40;99.90;;;;;;5039141;28;20484;-56
2021/12/01 00:26:32;;;;;;;46.13;21.35;;;9.40;99.90;;;;;;5035799;28;20052;-57
2021/12/01 00:28:58;;;;;;;52.78;22.63;;;9.40;99.90;;;;;;5038892;28;20167;-56
2021/12/01 00:31:24;;;;;;;44.72;20.48;;;9.50;99.90;;;;;;5021157;28;20045;-58
2021/12/01 00:33:51;;;;;;;40.95;18.88;;;9.50;99.90;;;;;;5045953;28;20110;-57
2021/12/01 00:36:16;;;;;;;43.90;18.70;;;9.50;99.90;;;;;;5033544;28;20329;-56
2021/12/01 00:38:44;;;;;;;41.50;17.48;;;9.50;99.90;;;;;;5035735;28;20048;-57
2021/12/01 00:41:11;;;;;;;37.25;17.80;;;9.60;99.90;;;;;;5046008;28;20478;-56
2021/12/01 00:43:40;;;;;;;38.67;15.32;;;9.60;99.90;;;;;;5007176;28;20520;-57
2021/12/01 00:46:12;;;;;;;33.80;14.57;;;9.60;99.90;;;;;;5038132;28;20036;-58
2021/12/01 00:48:37;;;;;;;34.33;15.25;;;9.60;99.90;;;;;;5021584;28;20506;-56
2021/12/01 00:51:04;;;;;;;31.13;14.45;;;9.60;99.90;;;;;;5033205;28;20116;-57
2021/12/01 00:53:30;;;;;;;30.27;15.15;;;9.60;99.90;;;;;;5058622;28;20036;-58
2021/12/01 00:55:56;;;;;;;26.77;13.93;;;9.60;99.90;;;;;;5040104;28;20041;-57
2021/12/01 00:58:22;;;;;;;30.30;14.18;;;9.60;99.90;;;;;;5046860;28;20106;-57
2021/12/01 01:00:50;;;;;;;26.65;13.20;;;9.60;99.90;;;;;;5038225;28;20043;-56
2021/12/01 01:03:17;;;;;;;33.38;13.32;;;9.60;99.90;;;;;;5043295;28;20321;-57
2021/12/01 01:05:42;;;;;;;30.42;13.32;;;9.60;99.90;;;;;;5035787;28;20052;-57
2021/12/01 01:08:09;;;;;;;29.30;12.85;;;9.60;99.90;;;;;;5039648;28;20053;-57
2021/12/01 01:18:39;;;;;;;19.90;10.48;;;9.60;99.90;;;;;;5035349;28;21149;-56
2021/12/01 01:21:07;;;;;;;22.60;9.30;;;9.60;99.90;;;;;;5038096;28;20097;-56
2021/12/01 01:23:35;;;;;;;20.92;8.80;;;9.60;99.90;;;;;;5025827;28;20465;-57
2021/12/01 01:26:03;;;;;;;25.35;8.70;;;9.60;99.90;;;;;;5017471;28;20501;-55
2021/12/01 01:28:28;;;;;;;20.33;7.82;;;9.70;99.90;;;;;;5048699;28;20108;-57
2021/12/01 01:30:55;;;;;;;24.05;8.27;;;9.70;99.90;;;;;;5030912;28;20552;-56
2021/12/01 01:33:22;;;;;;;19.70;6.60;;;9.70;99.90;;;;;;5032759;28;20926;-57
2021/12/01 01:35:49;;;;;;;18.92;7.10;;;9.70;99.90;;;;;;5034666;28;20049;-57
2021/12/01 01:38:15;;;;;;;21.58;7.00;;;9.70;99.90;;;;;;5046785;28;20076;-56
2021/12/01 01:40:41;;;;;;;20.02;6.88;;;9.70;99.90;;;;;;5056297;28;20108;-57
2021/12/01 01:43:08;;;;;;;15.38;6.18;;;9.70;99.90;;;;;;5042411;28;20040;-57
2021/12/01 01:45:34;;;;;;;17.17;5.90;;;9.70;99.90;;;;;;5035281;28;20059;-57
2021/12/01 01:48:08;;;;;;;16.85;5.22;;;9.70;99.90;;;;;;5036915;28;20051;-57
2021/12/01 01:50:36;;;;;;;17.60;5.38;;;9.70;99.90;;;;;;5025381;28;20139;-57
2021/12/01 01:53:11;;;;;;;15.45;4.10;;;9.70;99.90;;;;;;5030687;28;20483;-56
2021/12/01 01:55:47;;;;;;;14.52;3.85;;;9.70;99.90;;;;;;5034371;28;20465;-56
2021/12/01 01:58:14;;;;;;;16.15;4.00;;;9.70;99.90;;;;;;5029907;28;20060;-55
2021/12/01 02:00:50;;;;;;;14.90;3.85;;;9.70;99.90;;;;;;5022373;28;20095;-57
2021/12/01 02:03:17;;;;;;;16.13;3.90;;;9.80;99.90;;;;;;5040115;28;20525;-56
2021/12/01 02:05:42;;;;;;;16.27;3.75;;;9.70;99.90;;;;;;5057925;28;20452;-56
2021/12/01 02:08:20;;;;;;;17.17;3.90;;;9.70;99.90;;;;;;5037781;28;20044;-57
2021/12/01 02:10:50;;;;;;;13.32;3.55;;;9.70;99.90;;;;;;5040569;28;20505;-57
2021/12/01 02:13:18;;;;;;;16.75;3.50;;;9.70;99.90;;;;;;5036291;28;20111;-56
2021/12/01 02:15:45;;;;;;;10.38;3.42;;;9.70;99.90;;;;;;5021343;28;20041;-57
2021/12/01 02:18:12;;;;;;;16.23;4.63;;;9.70;99.90;;;;;;5016729;28;20137;-58
2021/12/01 02:20:38;;;;;;;13.38;3.80;;;9.70;99.90;;;;;;5033219;28;20455;-58
2021/12/01 02:23:04;;;;;;;14.55;3.53;;;9.70;99.90;;;;;;5005034;28;20044;-57
2021/12/01 02:25:30;;;;;;;13.48;2.90;;;9.70;99.90;;;;;;5029376;28;20151;-57
2021/12/01 02:27:56;;;;;;;9.80;2.90;;;9.70;99.90;;;;;;5046577;28;20055;-57
2021/12/01 02:30:23;;;;;;;9.98;3.13;;;9.60;99.90;;;;;;5053142;28;20044;-57
2021/12/01 02:32:50;;;;;;;10.27;2.17;;;9.70;99.90;;;;;;5039219;28;20048;-57
2021/12/01 02:35:17;;;;;;;9.80;3.00;;;9.70;99.90;;;;;;5032247;28;20066;-57
2021/12/01 02:37:42;;;;;;;14.30;2.88;;;9.70;99.90;;;;;;5025185;28;20049;-57
2021/12/01 02:40:09;;;;;;;15.68;2.88;;;9.70;99.90;;;;;;5017792;28;20067;-57
2021/12/01 02:42:35;;;;;;;13.98;2.53;;;9.70;99.90;;;;;;5030946;28;20044;-57
2021/12/01 02:45:02;;;;;;;14.35;3.25;;;9.70;99.90;;;;;;5037036;28;20044;-56
2021/12/01 02:47:29;;;;;;;13.07;2.58;;;9.70;99.90;;;;;;5034487;28;21205;-57
2021/12/01 02:49:55;;;;;;;14.98;3.53;;;9.70;99.90;;;;;;5049357;28;20222;-57
2021/12/01 02:52:22;;;;;;;11.90;2.53;;;9.70;99.90;;;;;;5043041;28;20063;-57
2021/12/01 02:54:48;;;;;;;14.32;2.85;;;9.70;99.90;;;;;;5032265;28;20047;-58
2021/12/01 02:57:14;;;;;;;14.30;3.22;;;9.70;99.90;;;;;;5034462;28;20072;-58
2021/12/01 02:59:41;;;;;;;19.48;3.47;;;9.70;99.90;;;;;;5026857;28;20087;-57
2021/12/01 03:02:08;;;;;;;9.77;2.60;;;9.70;99.90;;;;;;5035488;28;20036;-57
2021/12/01 03:04:35;;;;;;;12.15;2.33;;;9.70;99.90;;;;;;5036201;28;20518;-57
2021/12/01 03:07:02;;;;;;;12.55;2.58;;;9.70;99.90;;;;;;5034376;28;20052;-57
2021/12/01 03:09:28;;;;;;;15.13;3.05;;;9.70;99.90;;;;;;5029104;28;20082;-56
2021/12/01 03:11:55;;;;;;;18.88;3.80;;;9.70;99.90;;;;;;5034973;28;20630;-57
2021/12/01 03:14:21;;;;;;;18.92;2.72;;;9.80;99.90;;;;;;5039760;28;20043;-57
2021/12/01 03:16:48;;;;;;;15.75;3.00;;;9.80;99.90;;;;;;5035161;28;20039;-56
2021/12/01 03:19:15;;;;;;;19.38;2.63;;;9.80;99.90;;;;;;5035234;28;20051;-57
2021/12/01 03:21:42;;;;;;;14.07;2.70;;;9.90;99.90;;;;;;5037738;28;20287;-55
2021/12/01 03:24:09;;;;;;;17.58;2.97;;;9.90;99.90;;;;;;5039174;28;20127;-57
2021/12/01 03:26:36;;;;;;;17.40;2.72;;;9.90;99.90;;;;;;5025058;28;20049;-57
2021/12/01 03:29:03;;;;;;;13.13;2.75;;;9.90;99.90;;;;;;5027550;28;20049;-58
2021/12/01 03:31:29;;;;;;;17.02;2.92;;;9.90;99.90;;;;;;5036781;28;20048;-58
2021/12/01 03:33:55;;;;;;;17.20;2.97;;;9.90;99.90;;;;;;5008677;28;20079;-58
2021/12/01 03:36:20;;;;;;;14.90;2.90;;;9.90;99.90;;;;;;5015579;28;20036;-58
2021/12/01 03:38:47;;;;;;;24.80;3.35;;;9.90;99.90;;;;;;5014469;28;20534;-58
2021/12/01 03:41:13;;;;;;;18.25;3.72;;;10.00;99.90;;;;;;5020662;28;20486;-58
2021/12/01 03:43:39;;;;;;;29.13;4.25;;;10.00;99.90;;;;;;5018481;28;20068;-58
2021/12/01 03:46:05;;;;;;;23.20;3.53;;;9.90;99.90;;;;;;5030824;28;20055;-57
2021/12/01 03:48:31;;;;;;;19.77;3.63;;;10.00;99.90;;;;;;5014068;28;20639;-57
2021/12/01 03:50:57;;;;;;;22.77;4.40;;;9.90;99.90;;;;;;5027424;28;20040;-56
2021/12/01 03:53:24;;;;;;;24.17;3.20;;;10.00;99.90;;;;;;5031211;28;20071;-57
2021/12/01 03:55:51;;;;;;;31.52;4.85;;;10.00;99.90;;;;;;5034406;28;20380;-57
2021/12/01 03:58:16;;;;;;;32.47;5.10;;;9.90;99.90;;;;;;5038296;28;20049;-58
2021/12/01 04:00:43;;;;;;;26.20;5.00;;;9.90;99.90;;;;;;5037028;28;20064;-57
2021/12/01 04:03:08;;;;;;;21.00;3.88;;;9.90;99.90;;;;;;5032497;28;20728;-56
2021/12/01 04:05:34;;;;;;;26.55;4.43;;;9.90;99.90;;;;;;5038326;28;20075;-57
2021/12/01 04:08:01;;;;;;;26.88;4.55;;;9.90;99.90;;;;;;5040180;28;20546;-56
2021/12/01 04:10:28;;;;;;;24.75;3.95;;;9.90;99.90;;;;;;5035571;28;20082;-57
2021/12/01 04:12:54;;;;;;;24.15;4.25;;;9.90;99.90;;;;;;5036929;28;20041;-56
2021/12/01 04:15:20;;;;;;;21.63;3.63;;;9.90;99.90;;;;;;5035419;28;20032;-56
2021/12/01 04:17:47;;;;;;;31.30;4.82;;;9.90;99.90;;;;;;5022647;28;20124;-56
2021/12/01 04:20:15;;;;;;;23.88;4.60;;;9.90;99.90;;;;;;5034909;28;20076;-57
2021/12/01 04:22:43;;;;;;;25.13;4.72;;;9.80;99.90;;;;;;5028078;28;20110;-57
2021/12/01 04:25:10;;;;;;;27.00;5.03;;;9.80;99.90;;;;;;5035402;28;20040;-56
2021/12/01 04:27:37;;;;;;;22.17;4.03;;;9.80;99.90;;;;;;5024934;28;20155;-56
2021/12/01 04:30:05;;;;;;;32.33;6.05;;;9.80;99.90;;;;;;5055584;28;20044;-54
2021/12/01 04:32:31;;;;;;;24.15;4.97;;;9.80;99.90;;;;;;5019312;28;20514;-56
2021/12/01 04:34:58;;;;;;;21.73;4.28;;;9.80;99.90;;;;;;5057954;28;20041;-53
2021/12/01 04:37:24;;;;;;;24.23;5.13;;;9.70;99.90;;;;;;5036145;28;21789;-55
2021/12/01 04:39:51;;;;;;;23.80;4.50;;;9.70;99.90;;;;;;5011727;28;20049;-56
2021/12/01 04:42:17;;;;;;;18.23;4.20;;;9.70;99.90;;;;;;5029764;28;20980;-56
2021/12/01 04:44:43;;;;;;;17.05;3.70;;;9.70;99.90;;;;;;5023839;28;20032;-57
2021/12/01 04:47:12;;;;;;;15.77;2.97;;;9.70;99.90;;;;;;5046902;28;20090;-57
2021/12/01 04:49:39;;;;;;;12.55;2.83;;;9.70;99.90;;;;;;5025008;28;20045;-57
2021/12/01 04:52:06;;;;;;;11.93;3.30;;;9.70;99.90;;;;;;5050662;28;20422;-56
2021/12/01 04:54:33;;;;;;;10.55;2.78;;;9.60;99.90;;;;;;5056028;28;20129;-56
2021/12/01 04:57:02;;;;;;;8.93;2.47;;;9.60;99.90;;;;;;5008436;28;20051;-57
2021/12/01 04:59:28;;;;;;;7.78;2.35;;;9.60;99.90;;;;;;5038850;28;20040;-57
2021/12/01 05:01:55;;;;;;;6.40;2.40;;;9.60;99.90;;;;;;5022230;28;20055;-56
2021/12/01 05:04:22;;;;;;;4.70;2.28;;;9.60;99.90;;;;;;5001882;28;20041;-57
2021/12/01 05:06:48;;;;;;;7.28;2.53;;;9.60;99.90;;;;;;5055419;28;20068;-57
2021/12/01 05:09:14;;;;;;;4.63;2.92;;;9.60;99.90;;;;;;5037837;28;20087;-56
2021/12/01 05:11:40;;;;;;;4.32;2.65;;;9.60;99.90;;;;;;5039740;28;20525;-57
2021/12/01 05:14:05;;;;;;;3.28;2.60;;;9.60;99.90;;;;;;5029171;28;20106;-56
2021/12/01 05:16:31;;;;;;;5.43;2.88;;;9.60;99.90;;;;;;5023765;28;20076;-54
2021/12/01 05:18:57;;;;;;;3.75;2.47;;;9.60;99.90;;;;;;5054052;28;20120;-56
2021/12/01 05:21:23;;;;;;;3.55;2.67;;;9.60;99.90;;;;;;5004738;28;20102;-54
2021/12/01 05:23:49;;;;;;;2.83;2.10;;;9.60;99.90;;;;;;5036660;28;20069;-56
2021/12/01 05:26:17;;;;;;;4.65;2.38;;;9.60;99.90;;;;;;5030843;28;20087;-57
2021/12/01 05:28:43;;;;;;;2.47;2.08;;;9.60;99.90;;;;;;5037310;28;20107;-55
2021/12/01 05:31:08;;;;;;;3.50;1.83;;;9.60;99.90;;;;;;5042826;28;20468;-56
2021/12/01 05:33:35;;;;;;;3.00;1.80;;;9.50;99.90;;;;;;5020407;28;20159;-57
2021/12/01 05:36:01;;;;;;;3.00;2.10;;;9.60;99.90;;;;;;5015991;28;20043;-57
2021/12/01 05:38:27;;;;;;;2.80;2.08;;;9.50;99.90;;;;;;5048023;23;20344;-59
2021/12/01 05:40:53;;;;;;;2.42;1.65;;;9.50;99.90;;;;;;5057700;28;20052;-61
2021/12/01 05:43:19;;;;;;;2.95;2.00;;;9.50;99.90;;;;;;5049662;28;20475;-62
2021/12/01 05:45:46;;;;;;;4.57;3.08;;;9.40;99.90;;;;;;5038359;28;20047;-61
2021/12/01 05:48:14;;;;;;;4.15;2.80;;;9.40;99.90;;;;;;5048497;28;20036;-63
2021/12/01 05:50:39;;;;;;;3.72;2.80;;;9.40;99.90;;;;;;5031535;28;20501;-61
2021/12/01 05:53:05;;;;;;;3.83;2.65;;;9.40;99.90;;;;;;5032723;28;20040;-61
2021/12/01 05:55:31;;;;;;;3.70;2.58;;;9.40;99.90;;;;;;5040142;28;20333;-63
2021/12/01 05:57:58;;;;;;;3.95;2.60;;;9.40;99.90;;;;;;5038410;28;20325;-61
2021/12/01 06:00:24;;;;;;;4.30;3.10;;;9.40;99.90;;;;;;5032539;28;20187;-60
2021/12/01 06:02:51;;;;;;;3.95;2.60;;;9.40;99.90;;;;;;5045577;28;21218;-63
2021/12/01 06:05:18;;;;;;;4.07;3.05;;;9.30;99.90;;;;;;5033096;28;20459;-62
2021/12/01 06:07:44;;;;;;;4.25;3.28;;;9.30;99.90;;;;;;5039711;28;20040;-61
2021/12/01 06:10:11;;;;;;;5.00;3.10;;;9.30;99.90;;;;;;5032485;28;20131;-63
2021/12/01 06:12:40;;;;;;;5.13;3.95;;;9.30;99.90;;;;;;5039851;28;20478;-64
2021/12/01 06:15:07;;;;;;;4.90;3.83;;;9.30;99.90;;;;;;5015978;28;20061;-60
2021/12/01 06:17:33;;;;;;;6.00;4.13;;;9.30;99.90;;;;;;5030645;28;20558;-62
2021/12/01 06:19:59;;;;;;;5.07;4.00;;;9.30;99.90;;;;;;5046113;28;20041;-63
2021/12/01 06:22:25;;;;;;;4.20;3.28;;;9.30;99.90;;;;;;5025664;28;20093;-63
2021/12/01 06:24:50;;;;;;;4.78;3.08;;;9.30;99.90;;;;;;5012064;28;20044;-63
2021/12/01 06:27:16;;;;;;;6.75;3.50;;;9.30;99.90;;;;;;5029206;28;20479;-63
2021/12/01 06:29:42;;;;;;;4.90;3.50;;;9.30;99.90;;;;;;5032397;28;20044;-63
2021/12/01 06:32:08;;;;;;;6.65;3.30;;;9.20;99.90;;;;;;5051266;28;20054;-61
2021/12/01 06:34:33;;;;;;;5.40;4.18;;;9.30;99.90;;;;;;5039713;28;20044;-64
2021/12/01 06:36:59;;;;;;;7.35;5.68;;;9.20;99.90;;;;;;5041264;28;20032;-63
2021/12/01 06:39:25;;;;;;;7.22;5.32;;;9.20;99.90;;;;;;5053081;28;20450;-61
2021/12/01 06:41:54;;;;;;;7.35;5.07;;;9.20;99.90;;;;;;5053716;28;20032;-61
2021/12/01 06:44:20;;;;;;;6.05;4.70;;;9.20;99.90;;;;;;5039545;28;20127;-63
2021/12/01 06:46:46;;;;;;;5.75;4.32;;;9.20;99.90;;;;;;5048374;28;20402;-62
2021/12/01 06:49:12;;;;;;;6.38;4.55;;;9.20;99.90;;;;;;5033210;28;20102;-62
2021/12/01 06:51:37;;;;;;;6.57;4.82;;;9.20;99.90;;;;;;5021998;28;20490;-63
2021/12/01 06:54:04;;;;;;;7.43;5.07;;;9.20;99.90;;;;;;5045507;28;20549;-63
2021/12/01 06:56:29;;;;;;;8.55;5.60;;;9.20;99.90;;;;;;5039529;28;20230;-63
2021/12/01 06:58:55;;;;;;;9.13;5.93;;;9.20;99.90;;;;;;5049933;28;20562;-64
2021/12/01 07:01:21;;;;;;;8.23;6.18;;;9.20;99.90;;;;;;5010552;28;20045;-63
2021/12/01 07:03:46;;;;;;;8.48;7.22;;;9.20;99.90;;;;;;5052130;28;20036;-63
2021/12/01 07:06:12;;;;;;;10.05;7.10;;;9.20;99.90;;;;;;5036262;28;20123;-62
2021/12/01 07:08:38;;;;;;;11.35;7.93;;;9.20;99.90;;;;;;5052186;28;20037;-63
2021/12/01 07:11:04;;;;;;;11.52;7.10;;;9.20;99.90;;;;;;5058018;28;20056;-62
2021/12/01 07:13:32;;;;;;;10.48;7.38;;;9.20;99.90;;;;;;5016044;28;20036;-62
2021/12/01 07:15:58;;;;;;;12.02;7.40;;;9.20;99.90;;;;;;5032161;28;20414;-63
2021/12/01 07:18:24;;;;;;;8.90;6.78;;;9.20;99.90;;;;;;5030840;28;20471;-63
2021/12/01 07:20:49;;;;;;;10.43;7.75;;;9.20;99.90;;;;;;5018909;28;20056;-61
2021/12/01 07:23:15;;;;;;;12.25;7.18;;;9.20;99.90;;;;;;5000353;28;20087;-62
2021/12/01 07:25:41;;;;;;;9.98;8.00;;;9.20;99.90;;;;;;5036903;28;20044;-61
2021/12/01 07:28:07;;;;;;;14.75;8.00;;;9.20;99.90;;;;;;5021490;28;20083;-62
2021/12/01 07:30:35;;;;;;;14.65;7.93;;;9.20;99.90;;;;;;5042920;28;20485;-62
2021/12/01 07:33:01;;;;;;;16.65;7.75;;;9.20;99.90;;;;;;5019721;28;20032;-63
2021/12/01 07:35:30;;;;;;;15.73;7.68;;;9.30;99.90;;;;;;5005354;28;20036;-63
2021/12/01 07:37:56;;;;;;;11.57;7.20;;;9.20;99.90;;;;;;5013808;28;20180;-61
2021/12/01 07:40:22;;;;;;;12.68;6.28;;;9.20;99.90;;;;;;5030812;28;20044;-61
2021/12/01 07:42:48;;;;;;;13.43;5.85;;;9.30;99.90;;;;;;5052287;28;20041;-63
2021/12/01 07:45:13;;;;;;;15.95;5.93;;;9.30;99.90;;;;;;5044448;28;20387;-64
2021/12/01 07:47:40;;;;;;;12.65;6.30;;;9.30;99.90;;;;;;5028861;28;20141;-63
2021/12/01 07:50:07;;;;;;;15.00;6.30;;;9.30;99.90;;;;;;5050958;28;20040;-63
2021/12/01 07:52:35;;;;;;;12.00;4.78;;;9.30;99.90;;;;;;5051764;28;20037;-63
2021/12/01 07:55:01;;;;;;;11.68;4.80;;;9.40;99.90;;;;;;5026465;28;22250;-63
2021/12/01 07:57:27;;;;;;;11.43;3.80;;;9.30;99.90;;;;;;5027456;28;20094;-62
2021/12/01 07:59:52;;;;;;;12.38;3.47;;;9.30;99.90;;;;;;5041513;28;20044;-64
2021/12/01 08:02:18;;;;;;;13.27;3.67;;;9.40;99.90;;;;;;5007896;28;20624;-63
2021/12/01 08:04:44;;;;;;;13.50;3.15;;;9.40;99.90;;;;;;5032471;28;20060;-62
2021/12/01 08:07:09;;;;;;;12.25;2.55;;;9.30;99.90;;;;;;5015493;28;20044;-63
2021/12/01 08:09:35;;;;;;;16.50;3.58;;;9.30;99.90;;;;;;5047059;28;20587;-60
2021/12/01 08:12:01;;;;;;;18.55;2.60;;;9.40;99.90;;;;;;5040953;28;20300;-62
2021/12/01 08:14:27;;;;;;;13.75;2.33;;;9.30;99.90;;;;;;5041353;28;20055;-64
2021/12/01 08:16:54;;;;;;;13.23;2.45;;;9.30;99.90;;;;;;5015290;28;20045;-63
2021/12/01 08:19:21;;;;;;;11.15;2.50;;;9.20;99.90;;;;;;5033366;28;20314;-63
2021/12/01 08:21:49;;;;;;;18.92;3.10;;;9.20;99.90;;;;;;5032665;28;20049;-62
2021/12/01 08:24:15;;;;;;;18.27;3.13;;;9.10;99.90;;;;;;5022417;28;20122;-63
2021/12/01 08:26:42;;;;;;;14.55;3.60;;;9.10;99.90;;;;;;5012649;28;20507;-60
2021/12/01 08:29:08;;;;;;;18.10;2.85;;;9.10;99.90;;;;;;5058128;28;20040;-63
2021/12/01 08:31:34;;;;;;;14.93;3.40;;;9.10;99.90;;;;;;5037016;28;20055;-60
2021/12/01 08:34:00;;;;;;;10.93;2.22;;;9.10;99.90;;;;;;5048809;28;20037;-62
2021/12/01 08:36:26;;;;;;;15.23;2.28;;;9.10;99.90;;;;;;5042545;28;20039;-61
2021/12/01 08:38:52;;;;;;;9.50;1.80;;;9.10;99.90;;;;;;5024623;28;20106;-61
2021/12/01 08:41:18;;;;;;;9.75;1.52;;;9.20;99.90;;;;;;5033563;28;20041;-62
2021/12/01 08:43:44;;;;;;;12.43;2.20;;;9.10;99.90;;;;;;5019074;28;20437;-61
2021/12/01 08:46:10;;;;;;;11.30;2.00;;;9.20;99.90;;;;;;5035184;28;20040;-61
2021/12/01 08:48:37;;;;;;;6.78;1.60;;;9.20;99.90;;;;;;5019490;28;20110;-61
2021/12/01 08:51:03;;;;;;;11.00;1.60;;;9.20;99.90;;;;;;5018338;28;20051;-61
2021/12/01 08:53:31;;;;;;;7.07;1.13;;;9.20;99.90;;;;;;5037810;28;20076;-60
2021/12/01 08:55:59;;;;;;;12.13;1.60;;;9.10;99.90;;;;;;5038773;28;20656;-59
2021/12/01 08:58:25;;;;;;;14.63;2.33;;;9.10;99.90;;;;;;5034321;28;20040;-61
2021/12/01 09:00:53;;;;;;;11.40;1.95;;;9.10;99.90;;;;;;5037493;28;20044;-63
2021/12/01 09:03:19;;;;;;;11.38;2.20;;;9.10;99.90;;;;;;5033786;28;20068;-62
2021/12/01 09:05:46;;;;;;;16.40;2.63;;;9.10;99.90;;;;;;5035064;28;20068;-61
2021/12/01 09:08:14;;;;;;;16.10;2.88;;;9.10;99.90;;;;;;5034239;28;20070;-63
2021/12/01 09:10:39;;;;;;;11.95;1.75;;;9.00;99.90;;;;;;5016913;28;23344;-63
2021/12/01 09:13:07;;;;;;;15.27;3.17;;;9.10;99.90;;;;;;5020376;28;20045;-61
2021/12/01 09:15:33;;;;;;;15.63;2.20;;;9.10;99.90;;;;;;5035336;28;23108;-62
2021/12/01 09:18:00;;;;;;;8.93;1.77;;;9.00;99.90;;;;;;5017802;28;20168;-62
2021/12/01 09:20:26;;;;;;;15.00;2.15;;;9.00;99.90;;;;;;5032457;28;20069;-62
2021/12/01 09:22:54;;;;;;;9.35;2.25;;;9.10;99.90;;;;;;5032359;28;20521;-62
2021/12/01 09:25:20;;;;;;;16.27;2.40;;;9.10;99.90;;;;;;5034971;28;20045;-61
2021/12/01 09:27:48;;;;;;;13.60;2.80;;;9.10;99.90;;;;;;5015861;28;20103;-63
2021/12/01 09:30:16;;;;;;;14.98;2.17;;;9.00;99.90;;;;;;5035290;28;20530;-62
2021/12/01 09:32:41;;;;;;;13.73;2.10;;;8.90;99.90;;;;;;5034310;28;20049;-62
2021/12/01 09:35:09;;;;;;;13.25;2.38;;;8.90;99.90;;;;;;5009727;28;21435;-62
2021/12/01 09:37:35;;;;;;;14.60;2.53;;;9.00;99.90;;;;;;5031226;28;22505;-61
2021/12/01 09:40:14;;;;;;;13.25;2.38;;;9.10;99.90;;;;;;5041212;28;20049;-62
2021/12/01 09:42:54;;;;;;;18.48;2.63;;;9.10;99.90;;;;;;5028788;28;20084;-63
2021/12/01 09:45:25;;;;;;;18.02;2.95;;;9.10;99.90;;;;;;5032728;28;20052;-60
2021/12/01 09:47:52;;;;;;;18.20;3.35;;;9.10;99.90;;;;;;5032334;28;21037;-61
2021/12/01 09:50:18;;;;;;;23.75;3.22;;;9.10;99.90;;;;;;5023508;28;20040;-61
2021/12/01 09:52:44;;;;;;;18.95;3.05;;;9.20;99.90;;;;;;5031597;28;20052;-60
2021/12/01 09:55:12;;;;;;;17.85;2.80;;;9.30;99.90;;;;;;5039926;28;20108;-61
2021/12/01 09:57:38;;;;;;;20.70;3.58;;;9.30;99.90;;;;;;5039494;28;20607;-61
2021/12/01 10:00:06;;;;;;;18.88;3.80;;;9.30;99.90;;;;;;5035770;28;20044;-62
2021/12/01 10:02:33;;;;;;;18.25;3.53;;;9.30;99.90;;;;;;5057682;28;20095;-61
2021/12/01 10:05:00;;;;;;;19.13;3.60;;;9.30;99.90;;;;;;5020344;28;20276;-62
2021/12/01 10:07:35;;;;;;;22.15;3.47;;;9.30;99.90;;;;;;5052100;28;20585;-62
2021/12/01 10:10:07;;;;;;;21.60;4.00;;;9.20;99.90;;;;;;5036911;28;20132;-60
2021/12/01 10:12:47;;;;;;;18.05;3.28;;;9.20;99.90;;;;;;5037937;28;20072;-62
2021/12/01 10:15:14;;;;;;;19.58;3.42;;;9.20;99.90;;;;;;5033650;28;20052;-61
2021/12/01 10:17:39;;;;;;;16.63;3.38;;;9.10;99.90;;;;;;5037942;28;20509;-61
2021/12/01 10:20:18;;;;;;;13.65;2.90;;;9.00;99.90;;;;;;5054072;28;20035;-60
2021/12/01 10:23:11;;;;;;;15.57;2.63;;;9.00;99.90;;;;;;5030437;28;20037;-62
2021/12/01 10:25:38;;;;;;;23.67;3.42;;;9.00;99.90;;;;;;5050059;28;20051;-62
2021/12/01 10:28:04;;;;;;;28.27;4.32;;;9.00;99.90;;;;;;5056282;28;20040;-62
2021/12/01 10:30:37;;;;;;;20.27;3.20;;;9.00;99.90;;;;;;5004077;28;20136;-61
2021/12/01 10:33:32;;;;;;;18.75;3.28;;;9.00;99.90;;;;;;5036252;28;20036;-62
2021/12/01 10:36:03;;;;;;;21.77;3.40;;;8.90;99.90;;;;;;5026604;28;20071;-61
2021/12/01 10:38:33;;;;;;;7.95;2.42;;;9.00;99.90;;;;;;5034277;28;20071;-62
2021/12/01 10:41:10;;;;;;;12.57;2.67;;;9.00;99.90;;;;;;5038322;28;20598;-63
2021/12/01 10:43:54;;;;;;;18.10;2.50;;;9.00;99.90;;;;;;5033435;28;20493;-62
2021/12/01 10:46:20;;;;;;;19.02;3.90;;;9.00;99.90;;;;;;5025762;28;20052;-61
2021/12/01 10:49:01;;;;;;;19.23;2.58;;;9.00;99.90;;;;;;5045212;28;20059;-62
2021/12/01 10:51:35;;;;;;;14.77;2.70;;;9.00;99.90;;;;;;5028062;28;20123;-63
2021/12/01 10:54:01;;;;;;;17.25;2.53;;;9.00;99.90;;;;;;5031871;28;20462;-62
2021/12/01 10:56:27;;;;;;;18.65;4.25;;;9.00;99.90;;;;;;5038549;28;20132;-63
2021/12/01 10:58:53;;;;;;;18.60;3.53;;;9.00;99.90;;;;;;5038843;28;20108;-63
2021/12/01 11:01:24;;;;;;;17.60;3.40;;;9.00;99.90;;;;;;5049975;28;20033;-62
2021/12/01 11:03:51;;;;;;;22.70;3.90;;;9.00;99.90;;;;;;5029775;28;20406;-61
2021/12/01 11:06:24;;;;;;;24.92;4.15;;;8.90;99.90;;;;;;5050793;28;20088;-61
2021/12/01 11:08:55;;;;;;;31.00;4.77;;;8.90;99.90;;;;;;5017430;28;20048;-61
2021/12/01 11:11:24;;;;;;;21.35;3.38;;;8.90;99.90;;;;;;5023882;28;21315;-60
2021/12/01 11:13:51;;;;;;;22.65;4.57;;;9.00;99.90;;;;;;5040340;28;20119;-62
2021/12/01 11:16:18;;;;;;;30.25;4.72;;;9.00;99.90;;;;;;5017075;28;20058;-61
2021/12/01 11:18:51;;;;;;;33.33;5.13;;;9.00;99.90;;;;;;5034341;28;20028;-62
2021/12/01 11:21:22;;;;;;;29.65;4.32;;;9.00;99.90;;;;;;5036525;28;20555;-64
2021/12/01 11:24:00;;;;;;;21.80;3.85;;;9.00;99.90;;;;;;5026652;28;20051;-59
2021/12/01 11:26:28;;;;;;;22.80;4.72;;;8.90;99.90;;;;;;5039934;28;20107;-62
2021/12/01 11:28:55;;;;;;;26.77;4.72;;;8.90;99.90;;;;;;5035417;28;20053;-62
2021/12/01 11:31:36;;;;;;;28.60;4.70;;;8.90;99.90;;;;;;5037634;28;20068;-61
2021/12/01 11:34:05;;;;;;;28.45;4.95;;;8.90;99.90;;;;;;5052090;28;20592;-61
2021/12/01 11:36:37;;;;;;;18.05;4.18;;;8.80;99.90;;;;;;5043926;28;20132;-60
2021/12/01 11:39:12;;;;;;;23.42;4.50;;;8.80;99.90;;;;;;5024092;28;20048;-60
2021/12/01 11:41:42;;;;;;;19.40;4.05;;;8.70;99.90;;;;;;5054173;22;20102;-58
2021/12/01 11:44:10;;;;;;;24.70;4.28;;;8.60;99.90;;;;;;5026465;28;20050;-57
2021/12/01 11:46:36;;;;;;;22.80;4.80;;;8.50;99.90;;;;;;5032885;28;20119;-58
2021/12/01 11:49:08;;;;;;;18.08;3.92;;;8.50;99.90;;;;;;5026523;28;20494;-58
2021/12/01 11:51:45;;;;;;;24.15;3.78;;;8.50;99.90;;;;;;5012626;28;20485;-57
2021/12/01 11:54:16;;;;;;;20.15;3.55;;;8.50;99.90;;;;;;5031990;28;20500;-54
2021/12/01 11:56:56;;;;;;;22.50;4.78;;;8.60;99.90;;;;;;5033694;28;20503;-57
2021/12/01 11:59:28;;;;;;;18.90;3.13;;;8.60;99.90;;;;;;5035842;28;20094;-58
2021/12/01 12:01:58;;;;;;;19.88;3.53;;;8.60;99.90;;;;;;5039621;28;20500;-56
2021/12/01 12:04:42;;;;;;;15.60;2.92;;;8.60;99.90;;;;;;5031610;28;20072;-57
2021/12/01 12:07:19;;;;;;;21.13;2.85;;;8.70;99.90;;;;;;5035385;28;20080;-54
2021/12/01 12:10:05;;;;;;;15.50;2.92;;;8.60;99.90;;;;;;5036814;28;20170;-56
2021/12/01 12:12:57;;;;;;;21.23;3.45;;;8.70;99.90;;;;;;5030361;28;20178;-58
2021/12/01 12:15:33;;;;;;;14.77;2.55;;;8.70;99.90;;;;;;5030678;28;20048;-56
2021/12/01 12:17:58;;;;;;;19.17;3.50;;;8.70;99.90;;;;;;5031039;28;20045;-57
2021/12/01 12:20:28;;;;;;;12.00;2.22;;;8.60;99.90;;;;;;5031209;28;20067;-58
2021/12/01 12:22:55;;;;;;;16.38;2.75;;;8.50;99.90;;;;;;5033622;28;20048;-58
2021/12/01 12:25:43;;;;;;;14.60;2.40;;;8.50;99.90;;;;;;5025311;28;20044;-57
2021/12/01 12:28:37;;;;;;;14.48;2.78;;;8.50;99.90;;;;;;5022101;28;20045;-58
2021/12/01 12:31:25;;;;;;;13.10;3.35;;;8.40;99.90;;;;;;5029486;28;20222;-57
2021/12/01 12:33:51;;;;;;;18.10;3.33;;;8.40;99.90;;;;;;5037056;28;20248;-58
2021/12/01 12:36:38;;;;;;;15.35;2.83;;;8.40;99.90;;;;;;5032985;28;20123;-56
2021/12/01 12:39:08;;;;;;;13.60;2.28;;;8.40;99.90;;;;;;5023582;28;20060;-57
2021/12/01 12:42:05;;;;;;;19.10;2.53;;;8.30;99.90;;;;;;5036795;28;20451;-56
2021/12/01 12:44:35;;;;;;;13.25;2.70;;;8.40;99.90;;;;;;5029720;28;20127;-58
2021/12/01 12:47:07;;;;;;;13.20;2.80;;;8.40;99.90;;;;;;5031841;28;20834;-57
2021/12/01 12:49:44;;;;;;;13.13;3.22;;;8.40;99.90;;;;;;5026262;28;20052;-60
2021/12/01 12:52:25;;;;;;;14.80;2.65;;;8.40;99.90;;;;;;5035497;28;20049;-59
2021/12/01 12:54:51;;;;;;;13.43;3.13;;;8.30;99.90;;;;;;5034578;28;20164;-59
2021/12/01 12:57:17;;;;;;;24.35;3.85;;;8.30;99.90;;;;;;5007475;28;20037;-59
2021/12/01 12:59:44;;;;;;;22.33;2.88;;;8.30;99.90;;;;;;5029297;28;20045;-59
2021/12/01 13:02:09;;;;;;;18.17;3.20;;;8.30;99.90;;;;;;5025753;28;20037;-58